Sparta, WI (54656)

4:02 AM CST on December 08, 2016 (GMT -0600)
Sparta-Fort McCoy | | Change Station

Elev 837 ft 43.96 °N, 90.74 °W | Updated 7 minutes ago

Snow
Snow
16 °F
Feels Like 4 °F
N
9
Wind Variable Wind from West

Today
High -- | Low -- °F
--% Chance of Precip.
Yesterday
High -- | Low -- °F
Precip. -- in
Pressure 30.15 in
Visibility 10.0 miles
Clouds Overcast 2200 ft
Windchill 4 °F
Dew Point 11 °F
Humidity 82%
Rainfall 0.00 in
Snow Depth Not available.
7:25 AM 4:25 PM
First Quarter, 62% visible
METAR KCMY 080955Z AUTO 26008KT 10SM -SN OVC022 M09/M12 A3015 RMK AO2 T10911116
Pressure 30.15 in
Visibility 10.0 miles
Clouds Overcast 2200 ft
Windchill 4 °F
Dew Point 11 °F
Humidity 82%
Rainfall 0.00 in
Snow Depth Not available.
7:25 AM 4:25 PM
First Quarter, 62% visible
METAR KCMY 080955Z AUTO 26008KT 10SM -SN OVC022 M09/M12 A3015 RMK AO2 T10911116

10-Day Weather Forecast

Almanac

Astronomy

Dec. 08, 2016 Rise Set
Actual Time
Civil Twilight
Nautical Twilight
Astronomical Twilight
Moon
Length of Visible Light
Length of Day
Tomorrow will be .
, % of the Moon is Illuminated

Today's Extremes

State Highs State Lows

Community

WunderPhotos

Upload Photos

1,956,261 photos uploaded!

WunderBlog® & News

Nearby

Air Quality

  Air Quality AQ Index Pollutant
Not available.

Snow Depth

Station Depth Elevation

Earthquake Activity

City Distance Mag. Time & Date
Minimum magnitude displayed is 2.5.

Coastal Water Temperatures

Place Temperature

Stations

Nearby Weather Stations

Station Location Temp. Windchill Dew Point Humidity Wind Precip. Elev Updated Type
                   

Watches & Warnings

There are currently no watches in effect.